Portada
METAR-TAF:

METAR-TAF

Aeroports :

Ankeny Regional Airport

Ankeny, Iowa, Estats Units d'Amèrica

latitud: 41-41-24N, longitud: 093-33-57W, altitud: 275 m

Observació

L'informe es va fer fa 25 minuts, a les 09:35 UTC
Vent calma
Temperatura 16°C
Humitat 94%
Pressió 1012 hPa
Visibilitat: 3.2 km
Núvols disperses a una alçada de 6500 ft
boirina

METAR: KIKV 250935Z AUTO 00000KT 2SM BR SCT065 16/15 A2988 RMK AO2

Hora: 05:00 (10:00 UTC)


TAF: manca

Observacions i pronòstics meteorològics de més de 4000 aeroports (METAR i TAF).

Les estacions disponibles són els punts grocs i vermells al mapa.

Posi el ratolí al punt desitjat per veure el nom de l'estació.

Feu clic per veure les observacions i els pronòstics meteorològics.

Per canviar el mapa: feu clic els botons verds amb una creu de color negre per apropar; al botó verd amb un guió per allunyar la imatge; o en les fletxes verdes per a mapes adjacents.


METAR-TAF: